sensor_id;sensor_type;location;lat;lon;timestamp;temperature;humidity
26081;DHT22;13991;51.174;4.438;2023-10-09T00:00:59;17.40;99.90
26081;DHT22;13991;51.174;4.438;2023-10-09T00:03:49;17.40;99.90
26081;DHT22;13991;51.174;4.438;2023-10-09T00:06:22;17.40;99.90
26081;DHT22;13991;51.174;4.438;2023-10-09T00:08:57;17.40;99.90
26081;DHT22;13991;51.174;4.438;2023-10-09T00:11:23;17.40;99.90
26081;DHT22;13991;51.174;4.438;2023-10-09T00:13:55;17.40;99.90
26081;DHT22;13991;51.174;4.438;2023-10-09T00:16:25;17.30;99.90
26081;DHT22;13991;51.174;4.438;2023-10-09T00:19:05;17.30;99.90
26081;DHT22;13991;51.174;4.438;2023-10-09T00:21:48;17.30;99.90
26081;DHT22;13991;51.174;4.438;2023-10-09T00:24:14;17.30;99.90
26081;DHT22;13991;51.174;4.438;2023-10-09T00:26:55;17.30;99.90
26081;DHT22;13991;51.174;4.438;2023-10-09T00:29:21;17.30;99.90
26081;DHT22;13991;51.174;4.438;2023-10-09T00:31:54;17.30;99.90
26081;DHT22;13991;51.174;4.438;2023-10-09T00:34:39;17.30;99.90
26081;DHT22;13991;51.174;4.438;2023-10-09T00:37:09;17.30;99.90
26081;DHT22;13991;51.174;4.438;2023-10-09T00:39:49;17.30;99.90
26081;DHT22;13991;51.174;4.438;2023-10-09T00:42:25;17.40;99.90
26081;DHT22;13991;51.174;4.438;2023-10-09T00:45:01;17.40;99.90
26081;DHT22;13991;51.174;4.438;2023-10-09T00:47:31;17.50;99.90
26081;DHT22;13991;51.174;4.438;2023-10-09T00:50:09;17.50;99.90
26081;DHT22;13991;51.174;4.438;2023-10-09T00:52:44;17.50;99.90
26081;DHT22;13991;51.174;4.438;2023-10-09T00:55:15;17.50;99.90
26081;DHT22;13991;51.174;4.438;2023-10-09T00:57:49;17.50;99.90
26081;DHT22;13991;51.174;4.438;2023-10-09T01:00:24;17.50;99.90
26081;DHT22;13991;51.174;4.438;2023-10-09T01:03:04;17.50;99.90
26081;DHT22;13991;51.174;4.438;2023-10-09T01:06:01;17.50;99.90
26081;DHT22;13991;51.174;4.438;2023-10-09T01:08:38;17.40;99.90
26081;DHT22;13991;51.174;4.438;2023-10-09T01:13:40;17.40;99.90
26081;DHT22;13991;51.174;4.438;2023-10-09T01:16:22;17.40;99.90
26081;DHT22;13991;51.174;4.438;2023-10-09T01:18:53;17.40;99.90
26081;DHT22;13991;51.174;4.438;2023-10-09T01:21:22;17.50;99.90
26081;DHT22;13991;51.174;4.438;2023-10-09T01:23:50;17.60;99.90
26081;DHT22;13991;51.174;4.438;2023-10-09T01:26:54;17.40;99.90
26081;DHT22;13991;51.174;4.438;2023-10-09T01:29:23;17.40;99.90
26081;DHT22;13991;51.174;4.438;2023-10-09T01:31:54;17.40;99.90
26081;DHT22;13991;51.174;4.438;2023-10-09T01:34:23;17.40;99.90
26081;DHT22;13991;51.174;4.438;2023-10-09T01:36:53;17.30;99.90
26081;DHT22;13991;51.174;4.438;2023-10-09T01:39:25;17.30;99.90
26081;DHT22;13991;51.174;4.438;2023-10-09T01:41:54;17.30;99.90
26081;DHT22;13991;51.174;4.438;2023-10-09T01:44:32;17.40;99.90
26081;DHT22;13991;51.174;4.438;2023-10-09T01:47:04;17.40;99.90
26081;DHT22;13991;51.174;4.438;2023-10-09T01:49:43;17.50;99.90
26081;DHT22;13991;51.174;4.438;2023-10-09T01:52:09;17.60;99.90
26081;DHT22;13991;51.174;4.438;2023-10-09T01:54:39;17.70;99.90
26081;DHT22;13991;51.174;4.438;2023-10-09T01:57:08;17.80;99.90
26081;DHT22;13991;51.174;4.438;2023-10-09T01:59:42;17.70;99.90
26081;DHT22;13991;51.174;4.438;2023-10-09T02:02:16;17.80;99.90
26081;DHT22;13991;51.174;4.438;2023-10-09T02:04:58;17.90;99.90
26081;DHT22;13991;51.174;4.438;2023-10-09T02:07:50;17.80;99.90
26081;DHT22;13991;51.174;4.438;2023-10-09T02:10:24;17.70;99.90
26081;DHT22;13991;51.174;4.438;2023-10-09T02:12:50;17.70;99.90
26081;DHT22;13991;51.174;4.438;2023-10-09T02:15:26;17.70;99.90
26081;DHT22;13991;51.174;4.438;2023-10-09T02:20:51;17.50;99.90
26081;DHT22;13991;51.174;4.438;2023-10-09T02:23:28;17.50;99.90
26081;DHT22;13991;51.174;4.438;2023-10-09T02:26:13;17.50;99.90
26081;DHT22;13991;51.174;4.438;2023-10-09T02:28:54;17.60;99.90
26081;DHT22;13991;51.174;4.438;2023-10-09T02:31:30;17.60;99.90
26081;DHT22;13991;51.174;4.438;2023-10-09T02:34:06;17.50;99.90
26081;DHT22;13991;51.174;4.438;2023-10-09T02:36:33;17.30;99.90
26081;DHT22;13991;51.174;4.438;2023-10-09T02:39:22;17.40;99.90
26081;DHT22;13991;51.174;4.438;2023-10-09T02:41:55;17.40;99.90
26081;DHT22;13991;51.174;4.438;2023-10-09T02:44:27;17.40;99.90
26081;DHT22;13991;51.174;4.438;2023-10-09T02:47:05;17.40;99.90
26081;DHT22;13991;51.174;4.438;2023-10-09T02:49:37;17.50;99.90
26081;DHT22;13991;51.174;4.438;2023-10-09T02:52:06;17.50;99.90
26081;DHT22;13991;51.174;4.438;2023-10-09T02:54:42;17.50;99.90
26081;DHT22;13991;51.174;4.438;2023-10-09T02:57:12;17.60;99.90
26081;DHT22;13991;51.174;4.438;2023-10-09T02:59:49;17.50;99.90
26081;DHT22;13991;51.174;4.438;2023-10-09T03:02:17;17.60;99.90
26081;DHT22;13991;51.174;4.438;2023-10-09T03:04:43;17.60;99.90
26081;DHT22;13991;51.174;4.438;2023-10-09T03:07:12;17.40;99.90
26081;DHT22;13991;51.174;4.438;2023-10-09T03:09:39;17.40;99.90
26081;DHT22;13991;51.174;4.438;2023-10-09T03:12:06;17.50;99.90
26081;DHT22;13991;51.174;4.438;2023-10-09T03:14:36;17.40;99.90
26081;DHT22;13991;51.174;4.438;2023-10-09T03:17:04;17.30;99.90
26081;DHT22;13991;51.174;4.438;2023-10-09T03:19:31;17.40;99.90
26081;DHT22;13991;51.174;4.438;2023-10-09T03:21:59;17.30;99.90
26081;DHT22;13991;51.174;4.438;2023-10-09T03:24:25;17.40;99.90
26081;DHT22;13991;51.174;4.438;2023-10-09T03:26:52;17.40;99.90
26081;DHT22;13991;51.174;4.438;2023-10-09T03:29:21;17.30;99.90
26081;DHT22;13991;51.174;4.438;2023-10-09T03:31:47;17.30;99.90
26081;DHT22;13991;51.174;4.438;2023-10-09T03:34:16;17.30;99.90
26081;DHT22;13991;51.174;4.438;2023-10-09T03:36:42;17.30;99.90
26081;DHT22;13991;51.174;4.438;2023-10-09T03:39:09;17.20;99.90
26081;DHT22;13991;51.174;4.438;2023-10-09T03:41:54;17.20;99.90
26081;DHT22;13991;51.174;4.438;2023-10-09T03:44:26;17.20;99.90
26081;DHT22;13991;51.174;4.438;2023-10-09T03:46:54;17.20;99.90
26081;DHT22;13991;51.174;4.438;2023-10-09T03:49:20;17.30;99.90
26081;DHT22;13991;51.174;4.438;2023-10-09T03:51:49;17.40;99.90
26081;DHT22;13991;51.174;4.438;2023-10-09T03:54:15;17.40;99.90
26081;DHT22;13991;51.174;4.438;2023-10-09T03:56:48;17.40;99.90
26081;DHT22;13991;51.174;4.438;2023-10-09T03:59:24;17.40;99.90
26081;DHT22;13991;51.174;4.438;2023-10-09T04:01:56;17.40;99.90
26081;DHT22;13991;51.174;4.438;2023-10-09T04:04:24;17.50;99.90
26081;DHT22;13991;51.174;4.438;2023-10-09T04:06:50;17.40;99.90
26081;DHT22;13991;51.174;4.438;2023-10-09T04:09:19;17.30;99.90
26081;DHT22;13991;51.174;4.438;2023-10-09T04:11:48;17.30;99.90
26081;DHT22;13991;51.174;4.438;2023-10-09T04:14:25;17.40;99.90
26081;DHT22;13991;51.174;4.438;2023-10-09T04:17:00;17.30;99.90
26081;DHT22;13991;51.174;4.438;2023-10-09T04:19:30;17.40;99.90
26081;DHT22;13991;51.174;4.438;2023-10-09T04:22:04;17.40;99.90
26081;DHT22;13991;51.174;4.438;2023-10-09T04:24:33;17.30;99.90
26081;DHT22;13991;51.174;4.438;2023-10-09T04:27:09;17.30;99.90
26081;DHT22;13991;51.174;4.438;2023-10-09T04:29:35;17.30;99.90
26081;DHT22;13991;51.174;4.438;2023-10-09T04:32:04;17.20;99.90
26081;DHT22;13991;51.174;4.438;2023-10-09T04:34:34;17.20;99.90
26081;DHT22;13991;51.174;4.438;2023-10-09T04:37:14;17.20;99.90
26081;DHT22;13991;51.174;4.438;2023-10-09T04:39:43;17.30;99.90
26081;DHT22;13991;51.174;4.438;2023-10-09T04:42:37;17.40;99.90
26081;DHT22;13991;51.174;4.438;2023-10-09T04:45:06;17.40;99.90
26081;DHT22;13991;51.174;4.438;2023-10-09T04:47:34;17.40;99.90
26081;DHT22;13991;51.174;4.438;2023-10-09T04:52:44;17.40;99.90
26081;DHT22;13991;51.174;4.438;2023-10-09T04:55:10;17.30;99.90
26081;DHT22;13991;51.174;4.438;2023-10-09T04:57:41;17.30;99.90
26081;DHT22;13991;51.174;4.438;2023-10-09T05:00:13;17.20;99.90
26081;DHT22;13991;51.174;4.438;2023-10-09T05:02:55;17.30;99.90
26081;DHT22;13991;51.174;4.438;2023-10-09T05:05:29;17.40;99.90
26081;DHT22;13991;51.174;4.438;2023-10-09T05:08:16;17.30;99.90
26081;DHT22;13991;51.174;4.438;2023-10-09T05:10:59;17.20;99.90
26081;DHT22;13991;51.174;4.438;2023-10-09T05:13:34;17.20;99.90
26081;DHT22;13991;51.174;4.438;2023-10-09T05:16:17;17.20;99.90
26081;DHT22;13991;51.174;4.438;2023-10-09T05:18:55;17.10;99.90
26081;DHT22;13991;51.174;4.438;2023-10-09T05:21:35;17.10;99.90
26081;DHT22;13991;51.174;4.438;2023-10-09T05:24:03;17.20;99.90
26081;DHT22;13991;51.174;4.438;2023-10-09T05:26:45;17.10;99.90
26081;DHT22;13991;51.174;4.438;2023-10-09T05:29:15;17.20;99.90
26081;DHT22;13991;51.174;4.438;2023-10-09T05:32:14;17.20;99.90
26081;DHT22;13991;51.174;4.438;2023-10-09T05:34:46;17.10;99.90
26081;DHT22;13991;51.174;4.438;2023-10-09T05:37:29;17.20;99.90
26081;DHT22;13991;51.174;4.438;2023-10-09T05:40:09;17.20;99.90
26081;DHT22;13991;51.174;4.438;2023-10-09T05:42:44;17.00;99.90
26081;DHT22;13991;51.174;4.438;2023-10-09T05:45:14;16.90;99.90
26081;DHT22;13991;51.174;4.438;2023-10-09T05:47:50;16.90;99.90
26081;DHT22;13991;51.174;4.438;2023-10-09T05:50:15;16.70;99.90
26081;DHT22;13991;51.174;4.438;2023-10-09T05:52:41;16.70;99.90
26081;DHT22;13991;51.174;4.438;2023-10-09T05:55:07;16.70;99.90
26081;DHT22;13991;51.174;4.438;2023-10-09T05:57:45;16.70;99.90
26081;DHT22;13991;51.174;4.438;2023-10-09T06:00:17;16.90;99.90
26081;DHT22;13991;51.174;4.438;2023-10-09T06:03:01;17.00;99.90
26081;DHT22;13991;51.174;4.438;2023-10-09T06:05:50;17.00;99.90
26081;DHT22;13991;51.174;4.438;2023-10-09T06:08:22;17.00;99.90
26081;DHT22;13991;51.174;4.438;2023-10-09T06:11:07;17.00;99.90
26081;DHT22;13991;51.174;4.438;2023-10-09T06:13:56;17.00;99.90
26081;DHT22;13991;51.174;4.438;2023-10-09T06:16:34;17.00;99.90
26081;DHT22;13991;51.174;4.438;2023-10-09T06:19:18;16.90;99.90
26081;DHT22;13991;51.174;4.438;2023-10-09T06:21:44;16.90;99.90
26081;DHT22;13991;51.174;4.438;2023-10-09T06:24:22;17.00;99.90
26081;DHT22;13991;51.174;4.438;2023-10-09T06:26:49;17.10;99.90
26081;DHT22;13991;51.174;4.438;2023-10-09T06:29:24;17.10;99.90
26081;DHT22;13991;51.174;4.438;2023-10-09T06:32:09;17.20;99.90
26081;DHT22;13991;51.174;4.438;2023-10-09T06:35:09;17.20;99.90
26081;DHT22;13991;51.174;4.438;2023-10-09T06:37:43;17.30;99.90
26081;DHT22;13991;51.174;4.438;2023-10-09T06:40:35;17.30;99.90
26081;DHT22;13991;51.174;4.438;2023-10-09T06:43:21;17.30;99.90
26081;DHT22;13991;51.174;4.438;2023-10-09T06:45:48;17.20;99.90
26081;DHT22;13991;51.174;4.438;2023-10-09T06:48:21;17.20;99.90
26081;DHT22;13991;51.174;4.438;2023-10-09T06:51:09;17.30;99.90
26081;DHT22;13991;51.174;4.438;2023-10-09T06:53:44;17.30;99.90
26081;DHT22;13991;51.174;4.438;2023-10-09T06:56:28;17.30;99.90
26081;DHT22;13991;51.174;4.438;2023-10-09T06:59:00;17.30;99.90
26081;DHT22;13991;51.174;4.438;2023-10-09T07:01:45;17.30;99.90
26081;DHT22;13991;51.174;4.438;2023-10-09T07:04:15;17.40;99.90
26081;DHT22;13991;51.174;4.438;2023-10-09T07:06:55;17.40;99.90
26081;DHT22;13991;51.174;4.438;2023-10-09T07:09:22;17.50;99.90
26081;DHT22;13991;51.174;4.438;2023-10-09T07:11:52;17.50;99.90
26081;DHT22;13991;51.174;4.438;2023-10-09T07:14:24;17.60;99.90
26081;DHT22;13991;51.174;4.438;2023-10-09T07:17:03;17.70;99.90
26081;DHT22;13991;51.174;4.438;2023-10-09T07:19:52;17.70;99.90
26081;DHT22;13991;51.174;4.438;2023-10-09T07:22:22;17.70;99.90
26081;DHT22;13991;51.174;4.438;2023-10-09T07:24:56;17.80;99.90
26081;DHT22;13991;51.174;4.438;2023-10-09T07:27:31;17.80;99.90
26081;DHT22;13991;51.174;4.438;2023-10-09T07:30:18;17.80;99.90
26081;DHT22;13991;51.174;4.438;2023-10-09T07:33:04;17.80;99.90
26081;DHT22;13991;51.174;4.438;2023-10-09T07:35:43;18.00;99.90
26081;DHT22;13991;51.174;4.438;2023-10-09T07:40:38;18.20;99.90
26081;DHT22;13991;51.174;4.438;2023-10-09T07:43:23;18.30;99.90
26081;DHT22;13991;51.174;4.438;2023-10-09T07:45:54;18.20;99.90
26081;DHT22;13991;51.174;4.438;2023-10-09T07:48:23;18.20;99.90
26081;DHT22;13991;51.174;4.438;2023-10-09T07:50:52;18.20;99.90
26081;DHT22;13991;51.174;4.438;2023-10-09T07:53:23;18.10;99.90
26081;DHT22;13991;51.174;4.438;2023-10-09T07:55:55;18.20;99.90
26081;DHT22;13991;51.174;4.438;2023-10-09T07:58:25;18.20;99.90
26081;DHT22;13991;51.174;4.438;2023-10-09T08:00:57;18.40;99.90
26081;DHT22;13991;51.174;4.438;2023-10-09T08:03:24;18.50;99.90
26081;DHT22;13991;51.174;4.438;2023-10-09T08:05:51;18.50;99.90
26081;DHT22;13991;51.174;4.438;2023-10-09T08:08:19;18.40;99.90
26081;DHT22;13991;51.174;4.438;2023-10-09T08:10:54;18.50;99.90
26081;DHT22;13991;51.174;4.438;2023-10-09T08:13:37;18.50;99.90
26081;DHT22;13991;51.174;4.438;2023-10-09T08:16:15;18.50;99.90
26081;DHT22;13991;51.174;4.438;2023-10-09T08:18:48;18.60;99.90
26081;DHT22;13991;51.174;4.438;2023-10-09T08:21:18;18.50;99.90
26081;DHT22;13991;51.174;4.438;2023-10-09T08:23:43;18.40;99.90
26081;DHT22;13991;51.174;4.438;2023-10-09T08:26:16;18.50;99.90
26081;DHT22;13991;51.174;4.438;2023-10-09T08:28:55;18.30;99.90
26081;DHT22;13991;51.174;4.438;2023-10-09T08:31:40;18.30;99.90
26081;DHT22;13991;51.174;4.438;2023-10-09T08:34:22;18.40;99.90
26081;DHT22;13991;51.174;4.438;2023-10-09T08:36:51;18.60;99.90
26081;DHT22;13991;51.174;4.438;2023-10-09T08:39:21;18.50;99.90
26081;DHT22;13991;51.174;4.438;2023-10-09T08:41:55;18.60;99.90
26081;DHT22;13991;51.174;4.438;2023-10-09T08:44:25;18.70;99.90
26081;DHT22;13991;51.174;4.438;2023-10-09T08:46:56;18.90;99.90
26081;DHT22;13991;51.174;4.438;2023-10-09T08:49:23;19.00;99.90
26081;DHT22;13991;51.174;4.438;2023-10-09T08:51:49;19.00;99.90
26081;DHT22;13991;51.174;4.438;2023-10-09T08:54:18;18.70;99.90
26081;DHT22;13991;51.174;4.438;2023-10-09T08:56:45;18.70;99.90
26081;DHT22;13991;51.174;4.438;2023-10-09T08:59:18;18.90;99.90
26081;DHT22;13991;51.174;4.438;2023-10-09T09:01:51;19.00;99.90
26081;DHT22;13991;51.174;4.438;2023-10-09T09:04:39;19.20;99.90
26081;DHT22;13991;51.174;4.438;2023-10-09T09:07:24;19.30;99.90
26081;DHT22;13991;51.174;4.438;2023-10-09T09:10:00;19.30;99.90
26081;DHT22;13991;51.174;4.438;2023-10-09T09:12:47;19.40;99.90
26081;DHT22;13991;51.174;4.438;2023-10-09T09:15:19;19.20;99.90
26081;DHT22;13991;51.174;4.438;2023-10-09T09:17:47;19.10;99.90
26081;DHT22;13991;51.174;4.438;2023-10-09T09:22:53;19.40;99.90
26081;DHT22;13991;51.174;4.438;2023-10-09T09:25:39;19.40;99.90
26081;DHT22;13991;51.174;4.438;2023-10-09T09:28:04;19.50;99.90
26081;DHT22;13991;51.174;4.438;2023-10-09T09:30:38;19.60;99.90
26081;DHT22;13991;51.174;4.438;2023-10-09T09:36:03;19.90;99.90
26081;DHT22;13991;51.174;4.438;2023-10-09T09:38:31;19.80;99.90
26081;DHT22;13991;51.174;4.438;2023-10-09T09:41:08;19.80;99.90
26081;DHT22;13991;51.174;4.438;2023-10-09T09:43:36;19.90;99.90
26081;DHT22;13991;51.174;4.438;2023-10-09T09:46:07;20.10;99.90
26081;DHT22;13991;51.174;4.438;2023-10-09T09:48:37;20.20;99.90
26081;DHT22;13991;51.174;4.438;2023-10-09T09:51:05;20.40;99.90
26081;DHT22;13991;51.174;4.438;2023-10-09T09:53:34;20.20;99.90
26081;DHT22;13991;51.174;4.438;2023-10-09T09:56:00;20.20;99.90
26081;DHT22;13991;51.174;4.438;2023-10-09T09:58:28;20.30;99.90
26081;DHT22;13991;51.174;4.438;2023-10-09T10:01:09;20.30;99.90
26081;DHT22;13991;51.174;4.438;2023-10-09T10:03:46;20.50;99.90
26081;DHT22;13991;51.174;4.438;2023-10-09T10:06:14;20.70;99.90
26081;DHT22;13991;51.174;4.438;2023-10-09T10:08:43;20.60;99.90
26081;DHT22;13991;51.174;4.438;2023-10-09T10:11:44;20.70;99.90
26081;DHT22;13991;51.174;4.438;2023-10-09T10:14:14;20.80;99.90
26081;DHT22;13991;51.174;4.438;2023-10-09T10:17:04;20.90;99.90
26081;DHT22;13991;51.174;4.438;2023-10-09T10:22:30;21.00;99.90
26081;DHT22;13991;51.174;4.438;2023-10-09T10:24:56;20.80;99.90
26081;DHT22;13991;51.174;4.438;2023-10-09T10:27:28;20.60;99.90
26081;DHT22;13991;51.174;4.438;2023-10-09T10:35:21;20.70;99.90
26081;DHT22;13991;51.174;4.438;2023-10-09T10:37:58;20.60;99.90
26081;DHT22;13991;51.174;4.438;2023-10-09T10:40:37;20.60;99.90
26081;DHT22;13991;51.174;4.438;2023-10-09T10:43:15;20.80;99.90
26081;DHT22;13991;51.174;4.438;2023-10-09T10:46:13;20.70;99.90
26081;DHT22;13991;51.174;4.438;2023-10-09T10:48:42;20.70;99.90
26081;DHT22;13991;51.174;4.438;2023-10-09T10:51:13;20.50;99.90
26081;DHT22;13991;51.174;4.438;2023-10-09T10:53:50;20.30;99.90
26081;DHT22;13991;51.174;4.438;2023-10-09T10:56:18;20.20;99.90
26081;DHT22;13991;51.174;4.438;2023-10-09T10:58:54;20.40;99.90
26081;DHT22;13991;51.174;4.438;2023-10-09T11:01:30;20.50;99.90
26081;DHT22;13991;51.174;4.438;2023-10-09T11:04:36;20.60;99.90
26081;DHT22;13991;51.174;4.438;2023-10-09T11:07:02;20.60;99.90
26081;DHT22;13991;51.174;4.438;2023-10-09T11:09:54;20.60;99.90
26081;DHT22;13991;51.174;4.438;2023-10-09T11:15:09;20.60;99.90
26081;DHT22;13991;51.174;4.438;2023-10-09T11:18:05;20.70;99.90
26081;DHT22;13991;51.174;4.438;2023-10-09T11:20:51;20.70;99.90
26081;DHT22;13991;51.174;4.438;2023-10-09T11:23:30;20.80;99.90
26081;DHT22;13991;51.174;4.438;2023-10-09T11:26:00;21.00;99.90
26081;DHT22;13991;51.174;4.438;2023-10-09T11:28:44;21.00;99.90
26081;DHT22;13991;51.174;4.438;2023-10-09T11:31:22;20.90;99.90
26081;DHT22;13991;51.174;4.438;2023-10-09T11:33:50;20.80;99.90
26081;DHT22;13991;51.174;4.438;2023-10-09T11:36:20;20.90;99.90
26081;DHT22;13991;51.174;4.438;2023-10-09T11:39:02;21.00;99.90
26081;DHT22;13991;51.174;4.438;2023-10-09T11:41:44;21.00;99.90
26081;DHT22;13991;51.174;4.438;2023-10-09T11:44:10;21.00;99.90
26081;DHT22;13991;51.174;4.438;2023-10-09T11:47:00;21.20;99.90
26081;DHT22;13991;51.174;4.438;2023-10-09T11:49:55;21.30;99.90
26081;DHT22;13991;51.174;4.438;2023-10-09T11:52:24;21.00;99.90
26081;DHT22;13991;51.174;4.438;2023-10-09T11:55:11;21.00;99.90
26081;DHT22;13991;51.174;4.438;2023-10-09T11:57:41;20.90;99.90
26081;DHT22;13991;51.174;4.438;2023-10-09T12:00:08;20.90;99.90
26081;DHT22;13991;51.174;4.438;2023-10-09T12:02:54;21.00;99.90
26081;DHT22;13991;51.174;4.438;2023-10-09T12:05:19;21.00;99.90
26081;DHT22;13991;51.174;4.438;2023-10-09T12:07:46;21.00;99.90
26081;DHT22;13991;51.174;4.438;2023-10-09T12:10:12;21.10;99.90
26081;DHT22;13991;51.174;4.438;2023-10-09T12:12:39;20.90;99.90
26081;DHT22;13991;51.174;4.438;2023-10-09T12:15:06;20.90;99.90
26081;DHT22;13991;51.174;4.438;2023-10-09T12:17:32;21.10;99.90
26081;DHT22;13991;51.174;4.438;2023-10-09T12:19:58;21.20;99.90
26081;DHT22;13991;51.174;4.438;2023-10-09T12:22:24;21.10;99.90
26081;DHT22;13991;51.174;4.438;2023-10-09T12:24:52;21.20;99.90
26081;DHT22;13991;51.174;4.438;2023-10-09T12:27:19;21.00;99.90
26081;DHT22;13991;51.174;4.438;2023-10-09T12:29:46;20.90;99.90
26081;DHT22;13991;51.174;4.438;2023-10-09T12:32:11;21.00;99.90
26081;DHT22;13991;51.174;4.438;2023-10-09T12:34:38;21.00;99.90
26081;DHT22;13991;51.174;4.438;2023-10-09T12:37:04;21.10;99.90
26081;DHT22;13991;51.174;4.438;2023-10-09T12:39:30;21.10;99.90
26081;DHT22;13991;51.174;4.438;2023-10-09T12:42:01;21.20;99.90
26081;DHT22;13991;51.174;4.438;2023-10-09T12:44:34;21.10;99.90
26081;DHT22;13991;51.174;4.438;2023-10-09T12:47:05;21.00;99.90
26081;DHT22;13991;51.174;4.438;2023-10-09T12:49:31;21.00;99.90
26081;DHT22;13991;51.174;4.438;2023-10-09T12:51:57;21.10;99.90
26081;DHT22;13991;51.174;4.438;2023-10-09T12:54:24;21.00;99.90
26081;DHT22;13991;51.174;4.438;2023-10-09T12:56:53;21.00;99.90
26081;DHT22;13991;51.174;4.438;2023-10-09T12:59:19;21.00;99.90
26081;DHT22;13991;51.174;4.438;2023-10-09T13:01:46;21.00;99.90
26081;DHT22;13991;51.174;4.438;2023-10-09T13:04:18;21.00;99.90
26081;DHT22;13991;51.174;4.438;2023-10-09T13:06:47;21.10;99.90
26081;DHT22;13991;51.174;4.438;2023-10-09T13:09:16;21.10;99.90
26081;DHT22;13991;51.174;4.438;2023-10-09T13:11:50;21.10;99.90
26081;DHT22;13991;51.174;4.438;2023-10-09T13:14:16;21.20;99.90
26081;DHT22;13991;51.174;4.438;2023-10-09T13:16:48;21.30;99.90
26081;DHT22;13991;51.174;4.438;2023-10-09T13:19:16;21.40;99.90
26081;DHT22;13991;51.174;4.438;2023-10-09T13:21:43;21.30;99.90
26081;DHT22;13991;51.174;4.438;2023-10-09T13:24:09;21.30;99.90
26081;DHT22;13991;51.174;4.438;2023-10-09T13:26:49;21.20;99.90
26081;DHT22;13991;51.174;4.438;2023-10-09T13:29:17;21.30;99.90
26081;DHT22;13991;51.174;4.438;2023-10-09T13:31:48;21.50;99.90
26081;DHT22;13991;51.174;4.438;2023-10-09T13:34:14;21.40;99.90
26081;DHT22;13991;51.174;4.438;2023-10-09T13:36:44;21.40;99.90
26081;DHT22;13991;51.174;4.438;2023-10-09T13:39:19;21.40;99.90
26081;DHT22;13991;51.174;4.438;2023-10-09T13:41:45;21.20;99.90
26081;DHT22;13991;51.174;4.438;2023-10-09T13:44:11;21.00;99.90
26081;DHT22;13991;51.174;4.438;2023-10-09T13:46:37;21.10;99.90
26081;DHT22;13991;51.174;4.438;2023-10-09T13:49:10;21.20;99.90
26081;DHT22;13991;51.174;4.438;2023-10-09T13:51:43;21.20;99.90
26081;DHT22;13991;51.174;4.438;2023-10-09T13:54:12;21.20;99.90
26081;DHT22;13991;51.174;4.438;2023-10-09T13:56:48;21.10;99.90
26081;DHT22;13991;51.174;4.438;2023-10-09T13:59:22;21.40;99.90
26081;DHT22;13991;51.174;4.438;2023-10-09T14:01:54;21.40;99.90
26081;DHT22;13991;51.174;4.438;2023-10-09T14:04:21;21.50;99.90
26081;DHT22;13991;51.174;4.438;2023-10-09T14:06:49;21.20;99.90
26081;DHT22;13991;51.174;4.438;2023-10-09T14:09:17;21.20;99.90
26081;DHT22;13991;51.174;4.438;2023-10-09T14:12:01;21.30;99.90
26081;DHT22;13991;51.174;4.438;2023-10-09T14:14:44;21.30;99.90
26081;DHT22;13991;51.174;4.438;2023-10-09T14:17:14;21.30;99.90
26081;DHT22;13991;51.174;4.438;2023-10-09T14:19:40;21.30;99.90
26081;DHT22;13991;51.174;4.438;2023-10-09T14:22:12;21.50;99.90
26081;DHT22;13991;51.174;4.438;2023-10-09T14:24:41;21.50;99.90
26081;DHT22;13991;51.174;4.438;2023-10-09T14:27:11;21.50;99.90
26081;DHT22;13991;51.174;4.438;2023-10-09T14:29:45;21.40;99.90
26081;DHT22;13991;51.174;4.438;2023-10-09T14:32:11;21.50;99.90
26081;DHT22;13991;51.174;4.438;2023-10-09T14:34:41;21.40;99.90
26081;DHT22;13991;51.174;4.438;2023-10-09T14:37:30;21.20;99.90
26081;DHT22;13991;51.174;4.438;2023-10-09T14:39:57;21.10;99.90
26081;DHT22;13991;51.174;4.438;2023-10-09T14:42:23;21.20;99.90
26081;DHT22;13991;51.174;4.438;2023-10-09T14:44:53;21.40;99.90
26081;DHT22;13991;51.174;4.438;2023-10-09T14:47:20;21.30;99.90
26081;DHT22;13991;51.174;4.438;2023-10-09T14:49:49;21.50;99.90
26081;DHT22;13991;51.174;4.438;2023-10-09T14:52:16;21.50;99.90
26081;DHT22;13991;51.174;4.438;2023-10-09T14:54:42;21.30;99.90
26081;DHT22;13991;51.174;4.438;2023-10-09T14:57:10;21.40;99.90
26081;DHT22;13991;51.174;4.438;2023-10-09T14:59:37;21.40;99.90
26081;DHT22;13991;51.174;4.438;2023-10-09T15:02:03;21.50;99.90
26081;DHT22;13991;51.174;4.438;2023-10-09T15:04:34;21.70;99.90
26081;DHT22;13991;51.174;4.438;2023-10-09T15:07:06;21.70;99.90
26081;DHT22;13991;51.174;4.438;2023-10-09T15:09:35;21.80;99.90
26081;DHT22;13991;51.174;4.438;2023-10-09T15:12:02;21.60;99.90
26081;DHT22;13991;51.174;4.438;2023-10-09T15:14:28;21.80;99.90
26081;DHT22;13991;51.174;4.438;2023-10-09T15:16:53;21.80;99.90
26081;DHT22;13991;51.174;4.438;2023-10-09T15:19:19;21.80;99.90
26081;DHT22;13991;51.174;4.438;2023-10-09T15:21:55;21.60;99.90
26081;DHT22;13991;51.174;4.438;2023-10-09T15:24:20;21.80;99.90
26081;DHT22;13991;51.174;4.438;2023-10-09T15:26:46;21.70;99.90
26081;DHT22;13991;51.174;4.438;2023-10-09T15:29:20;21.80;99.90
26081;DHT22;13991;51.174;4.438;2023-10-09T15:31:54;21.80;99.90
26081;DHT22;13991;51.174;4.438;2023-10-09T15:34:20;21.80;99.90
26081;DHT22;13991;51.174;4.438;2023-10-09T15:36:47;21.70;99.90
26081;DHT22;13991;51.174;4.438;2023-10-09T15:39:13;21.60;99.90
26081;DHT22;13991;51.174;4.438;2023-10-09T15:41:39;21.80;99.90
26081;DHT22;13991;51.174;4.438;2023-10-09T15:44:05;21.70;99.90
26081;DHT22;13991;51.174;4.438;2023-10-09T15:46:32;21.70;99.90
26081;DHT22;13991;51.174;4.438;2023-10-09T15:49:01;21.50;99.90
26081;DHT22;13991;51.174;4.438;2023-10-09T15:51:29;21.30;99.90
26081;DHT22;13991;51.174;4.438;2023-10-09T15:53:56;21.30;99.90
26081;DHT22;13991;51.174;4.438;2023-10-09T15:56:22;21.30;99.90
26081;DHT22;13991;51.174;4.438;2023-10-09T15:58:48;21.30;99.90
26081;DHT22;13991;51.174;4.438;2023-10-09T16:01:15;21.30;99.90
26081;DHT22;13991;51.174;4.438;2023-10-09T16:03:44;21.10;99.90
26081;DHT22;13991;51.174;4.438;2023-10-09T16:06:13;21.20;99.90
26081;DHT22;13991;51.174;4.438;2023-10-09T16:08:40;21.30;99.90
26081;DHT22;13991;51.174;4.438;2023-10-09T16:11:07;21.10;99.90
26081;DHT22;13991;51.174;4.438;2023-10-09T16:13:34;21.10;99.90
26081;DHT22;13991;51.174;4.438;2023-10-09T16:16:00;21.00;99.90
26081;DHT22;13991;51.174;4.438;2023-10-09T16:18:27;21.00;99.90
26081;DHT22;13991;51.174;4.438;2023-10-09T16:20:56;21.10;99.90
26081;DHT22;13991;51.174;4.438;2023-10-09T16:23:23;21.10;99.90
26081;DHT22;13991;51.174;4.438;2023-10-09T16:25:50;21.30;99.90
26081;DHT22;13991;51.174;4.438;2023-10-09T16:28:18;21.30;99.90
26081;DHT22;13991;51.174;4.438;2023-10-09T16:30:43;21.20;99.90
26081;DHT22;13991;51.174;4.438;2023-10-09T16:33:09;21.00;99.90